Share

Bonifay, FL (32425)

9:46 AM CDT on April 24, 2014 (GMT -0500)
Greenhead (KFLCHIPL3) Elev 122 ft | 30.51 °N, 85.64 °W | Change Station
Active Advisory: Flood Warning

Current weather conditions updated 3 minutes ago

Scattered Clouds
Scattered Clouds
76.8 °F
Feels Like 78 °F
N
2.9
Wind Variable Wind from SW
Gusts 3.6 mph
Sunrise 6:05 AM
Sunset 7:16 PM
Moon Waning Crescent

Today is forecast to be Cooler than yesterday.

Pressure 30.00 in
Visibility 10.0 miles
Clouds Scattered Clouds 400 ft
Heat Index 78 °F
Dew Point 56 °F
Humidity 49%
Rainfall 0.00 in
Snow Depth Not available.
UV 5 out of 16
Pollen 7.90 out of 12
Air Quality Not available.
Flu Activity Sporadic
METAR K54J 241435Z AUTO 00000KT 10SM SCT004 21/19 A3000 RMK AO2 T02060188

More Conditions Fewer Conditions

Pressure 30.00 in
Visibility 10.0 miles
Clouds Scattered Clouds 400 ft
Heat Index 78 °F
Dew Point 56 °F
Humidity 49%
Rainfall 0.00 in
Snow Depth Not available.
UV 5 out of 16
Pollen 7.90 out of 12
Air Quality Not available.
Flu Activity Sporadic
METAR K54J 241435Z AUTO 00000KT 10SM SCT004 21/19 A3000 RMK AO2 T02060188

More Conditions Fewer Conditions

10-Day Weather Forecast

Almanac

Astronomy

Apr. 24, 2014 Rise Set
Actual Time 6:05 AM CDT 7:16 PM CDT
Civil Twilight 5:40 AM CDT 7:41 PM CDT
Nautical Twilight 5:10 AM CDT 8:11 PM CDT
Astronomical Twilight 4:39 AM CDT 8:43 PM CDT
Moon 2:55 AM CDT 2:50 PM CDT
Length of Visible Light 14h 01m
Length of Day
13h 11m
Tomorrow will be 1m 41s longer.
Waning Crescent, 25% of the Moon is Illuminated
Today
Waning Crescent
Apr 29
New
May 6
First Quarter
May 14
Full
May 21
Last Quarter

Today's Extremes

State Highs State Lows

Community

  • Clouds mov'n in
    Clouds mov'n in
  • Stacked
    Stacked
  • clouds approaching Red Sox Nation
    clouds approaching Red Sox Nation
  • Balance
    Balance
  • Citysky
    Citysky

WunderPhotos

Upload Photos

1,704,644 photos uploaded!

WunderBlogs® & News

By Dr. Jeff Masters
Director of Meteorology, Weather Underground
By Kari Strenfel
Meteorologist, Weather Underground
By Christopher C. Burt
Weather Historian, Weather Underground
April 24, 2014
April 24, 2014
April 24, 2014

Nearby

Snow Depth

Station Depth Elevation
No new snow has been reported.

Coastal Water Temperatures

Place Temperature
No Stations Reporting

Earthquake Activity

City Distance Mag. Time & Date
No recent earthquake activity has been reported nearby.
Minimum magnitude displayed is 2.5.

Nearby Weather Stations

Station Location Temp. Heat Index Dew Point Humidity Wind Precip. Elev Updated Type
Greenhead, Chipley, FL 76.8 °F 78 °F 56 °F 49% SW  at  2.9 mph 0.00 in / hr 122 ft 9:43 AM CDT Normal
County Rd. 85, Hartford, AL 73.2 °F 76 °F 60 °F 64% NE  at  0.0 mph 0.00 in / hr 290 ft 9:46 AM CDT Rapid Fire

Show More Stations Show Fewer Stations

What do you think?

We're not finished. Please let us know what you like, what you don't like, and what you are still missing.